Time;durP1;ratioP1;P1;durP2;ratioP2;P2;SDS_P1;SDS_P2;PMS_P1;PMS_P2;Temp;Humidity;BMP_temperature;BMP_pressure;BME280_temperature;BME280_humidity;BME280_pressure;Samples;Min_cycle;Max_cycle;Signal;HPM_P1;HPM_P2
2023/02/22 00:01:27;;;;;;;12.45;4.57;;;7.60;99.90;;;;;;5011814;28;20397;-81
2023/02/22 00:03:53;;;;;;;12.95;4.82;;;7.70;99.90;;;;;;5008059;28;20399;-83
2023/02/22 00:06:23;;;;;;;14.07;4.53;;;7.60;99.90;;;;;;5007750;28;20469;-81
2023/02/22 00:08:51;;;;;;;20.30;6.00;;;7.50;99.90;;;;;;4994559;28;20494;-80
2023/02/22 00:11:17;;;;;;;16.08;5.22;;;7.30;99.90;;;;;;4981986;28;20423;-82
2023/02/22 00:13:43;;;;;;;13.10;5.05;;;7.20;99.90;;;;;;4999241;28;21140;-81
2023/02/22 00:16:13;;;;;;;13.93;4.82;;;7.30;99.90;;;;;;4985034;28;20424;-82
2023/02/22 00:18:39;;;;;;;14.57;5.47;;;7.20;99.90;;;;;;4981759;28;20391;-81
2023/02/22 00:21:09;;;;;;;21.27;6.10;;;7.20;99.90;;;;;;4981075;28;20912;-81
2023/02/22 00:23:38;;;;;;;15.65;5.18;;;7.50;99.90;;;;;;4981764;28;20536;-82
2023/02/22 00:26:08;;;;;;;15.70;5.10;;;7.30;99.90;;;;;;4975852;28;20414;-81
2023/02/22 00:28:35;;;;;;;16.90;5.43;;;7.10;99.90;;;;;;4980262;28;20391;-81
2023/02/22 00:31:04;;;;;;;17.67;5.22;;;7.30;99.90;;;;;;4979820;28;20844;-81
2023/02/22 00:33:30;;;;;;;11.38;3.90;;;7.30;99.90;;;;;;4991651;28;20425;-82
2023/02/22 00:35:56;;;;;;;22.23;6.13;;;7.30;99.90;;;;;;4980856;28;20424;-83
2023/02/22 00:38:21;;;;;;;14.00;4.40;;;7.00;99.90;;;;;;4985822;28;20905;-81
2023/02/22 00:40:47;;;;;;;16.88;4.70;;;7.00;99.90;;;;;;4996227;28;20465;-82
2023/02/22 00:43:13;;;;;;;12.05;4.97;;;7.20;99.90;;;;;;5023474;28;20374;-81
2023/02/22 00:45:40;;;;;;;12.23;4.30;;;7.30;99.90;;;;;;5023970;28;20422;-82
2023/02/22 00:48:07;;;;;;;16.23;5.27;;;7.40;99.90;;;;;;5008539;28;20462;-82
2023/02/22 00:50:33;;;;;;;18.77;5.45;;;7.40;99.90;;;;;;5008559;28;20399;-81
2023/02/22 00:53:00;;;;;;;14.55;4.38;;;7.30;99.90;;;;;;5008880;28;20494;-81
2023/02/22 00:55:31;;;;;;;10.37;4.20;;;7.40;99.90;;;;;;5008690;28;20403;-82
2023/02/22 00:57:58;;;;;;;17.43;4.97;;;7.50;99.90;;;;;;5011686;28;20827;-80
2023/02/22 01:00:38;;;;;;;16.15;4.97;;;7.50;99.90;;;;;;5028454;28;20944;-81
2023/02/22 01:03:07;;;;;;;12.13;3.93;;;7.50;99.90;;;;;;5028263;28;20472;-81
2023/02/22 01:05:33;;;;;;;16.90;4.83;;;7.60;99.90;;;;;;5028082;28;20386;-80
2023/02/22 01:08:01;;;;;;;18.30;5.88;;;7.60;99.90;;;;;;5009018;28;20458;-81
2023/02/22 01:10:29;;;;;;;19.60;5.90;;;7.20;99.90;;;;;;5008691;28;20939;-82
2023/02/22 01:12:55;;;;;;;16.58;5.00;;;7.10;99.90;;;;;;5010463;28;20402;-81
2023/02/22 01:15:23;;;;;;;15.07;5.03;;;7.20;99.90;;;;;;4996439;28;20989;-81
2023/02/22 01:17:52;;;;;;;19.15;6.35;;;7.30;99.90;;;;;;5004322;28;20398;-81
2023/02/22 01:20:19;;;;;;;14.33;4.93;;;7.20;99.90;;;;;;5016513;28;20421;-81
2023/02/22 01:22:47;;;;;;;10.93;4.20;;;7.20;99.90;;;;;;5031429;28;20437;-82
2023/02/22 01:25:17;;;;;;;15.88;4.80;;;7.30;99.90;;;;;;5023815;28;20394;-81
2023/02/22 01:27:43;;;;;;;18.67;5.38;;;7.30;99.90;;;;;;5011696;28;20407;-82
2023/02/22 01:30:12;;;;;;;15.98;5.57;;;7.20;99.90;;;;;;5011502;28;20379;-80
2023/02/22 01:32:40;;;;;;;19.00;5.65;;;7.10;99.90;;;;;;5009707;28;20397;-81
2023/02/22 01:35:12;;;;;;;16.75;4.75;;;7.10;99.90;;;;;;5009852;28;20503;-82
2023/02/22 01:37:38;;;;;;;17.25;5.25;;;7.20;99.90;;;;;;5008026;28;20533;-81
2023/02/22 01:40:07;;;;;;;11.93;4.28;;;7.30;99.90;;;;;;5009265;28;20403;-80
2023/02/22 01:42:33;;;;;;;15.75;5.78;;;7.30;99.90;;;;;;5011306;28;20403;-82
2023/02/22 01:45:31;;;;;;;15.15;5.43;;;7.20;99.90;;;;;;5010893;28;20375;-81
2023/02/22 01:48:24;;;;;;;14.70;5.35;;;7.30;99.90;;;;;;4991061;28;20448;-82
2023/02/22 01:50:59;;;;;;;18.03;5.47;;;7.20;99.90;;;;;;5003477;28;20494;-80
2023/02/22 01:53:35;;;;;;;21.17;6.32;;;7.20;99.90;;;;;;5008597;28;20908;-80
2023/02/22 01:56:02;;;;;;;22.80;6.55;;;6.90;99.90;;;;;;5009921;28;20484;-81
2023/02/22 01:58:31;;;;;;;17.08;5.75;;;6.70;99.90;;;;;;5007774;28;20411;-80
2023/02/22 02:00:57;;;;;;;19.85;6.18;;;6.80;99.90;;;;;;5009536;28;20411;-81
2023/02/22 02:03:27;;;;;;;15.03;5.47;;;6.70;99.90;;;;;;5010310;28;20481;-80
2023/02/22 02:05:55;;;;;;;22.57;7.00;;;6.60;99.90;;;;;;5007566;28;20450;-81
2023/02/22 02:08:35;;;;;;;15.80;5.50;;;6.40;99.90;;;;;;5006383;28;20738;-80
2023/02/22 02:11:04;;;;;;;18.05;6.63;;;6.30;99.90;;;;;;5009987;28;20904;-79
2023/02/22 02:13:30;;;;;;;20.38;6.47;;;6.10;99.90;;;;;;5003690;28;21139;-81
2023/02/22 02:15:56;;;;;;;17.23;5.90;;;6.00;99.90;;;;;;5008381;28;20411;-81
2023/02/22 02:18:23;;;;;;;17.80;5.55;;;5.90;99.90;;;;;;5005581;28;20424;-81
2023/02/22 02:21:09;;;;;;;17.27;5.72;;;5.90;99.90;;;;;;5009173;28;20411;-82
2023/02/22 02:24:01;;;;;;;16.08;5.28;;;5.70;99.90;;;;;;5008227;28;20439;-79
2023/02/22 02:26:47;;;;;;;20.48;5.25;;;5.80;99.90;;;;;;5007974;28;20399;-82
2023/02/22 02:29:34;;;;;;;14.75;4.60;;;5.80;99.90;;;;;;4996992;28;20407;-81
2023/02/22 02:32:18;;;;;;;16.48;5.38;;;5.80;99.90;;;;;;5013455;28;20407;-81
2023/02/22 02:35:10;;;;;;;15.98;5.13;;;5.80;99.90;;;;;;5007996;28;20459;-81
2023/02/22 02:37:41;;;;;;;16.20;4.53;;;5.70;99.90;;;;;;5007663;28;20403;-80
2023/02/22 02:40:35;;;;;;;14.83;5.13;;;5.80;99.90;;;;;;5007640;28;20422;-80
2023/02/22 02:43:30;;;;;;;21.17;6.57;;;5.80;99.90;;;;;;5013372;28;20393;-82
2023/02/22 02:46:06;;;;;;;16.45;5.38;;;5.60;99.90;;;;;;4991141;28;20416;-82
2023/02/22 02:48:34;;;;;;;13.88;5.38;;;5.70;99.90;;;;;;5007183;28;20429;-82
2023/02/22 02:51:02;;;;;;;15.40;5.17;;;5.90;99.90;;;;;;5011035;28;20885;-81
2023/02/22 02:53:40;;;;;;;21.65;5.38;;;5.90;99.90;;;;;;5010969;28;20402;-82
2023/02/22 02:56:06;;;;;;;13.00;4.70;;;5.90;99.90;;;;;;5008874;28;20485;-81
2023/02/22 02:58:32;;;;;;;12.15;5.30;;;5.80;99.90;;;;;;5009742;28;20383;-81
2023/02/22 03:01:03;;;;;;;15.90;5.85;;;5.80;99.90;;;;;;5010806;28;20850;-82
2023/02/22 03:03:57;;;;;;;21.80;6.07;;;5.80;99.90;;;;;;5008064;28;20522;-81
2023/02/22 03:06:45;;;;;;;17.60;5.35;;;5.90;99.90;;;;;;5008872;28;20771;-81
2023/02/22 03:09:34;;;;;;;18.70;5.68;;;5.90;99.90;;;;;;4994934;28;20410;-81
2023/02/22 03:12:35;;;;;;;18.50;5.77;;;5.80;99.90;;;;;;5265523;23;20587;-80
2023/02/22 03:15:10;;;;;;;17.38;6.05;;;5.80;99.90;;;;;;4984914;28;20997;-81
2023/02/22 03:17:44;;;;;;;14.13;5.15;;;5.90;99.90;;;;;;4989793;28;20412;-82
2023/02/22 03:20:30;;;;;;;23.83;6.15;;;5.90;99.90;;;;;;4990773;28;20905;-82
2023/02/22 03:23:10;;;;;;;15.45;5.38;;;5.70;99.90;;;;;;4989248;28;20503;-82
2023/02/22 03:25:59;;;;;;;13.55;5.35;;;5.60;99.90;;;;;;4990161;28;20420;-82
2023/02/22 03:28:26;;;;;;;18.17;5.60;;;5.70;99.90;;;;;;4988986;28;20403;-82
2023/02/22 03:31:15;;;;;;;16.13;5.38;;;5.80;99.90;;;;;;4987301;28;20439;-81
2023/02/22 03:34:04;;;;;;;14.33;4.97;;;5.90;99.90;;;;;;4986440;28;20459;-82
2023/02/22 03:36:37;;;;;;;19.50;5.65;;;6.00;99.90;;;;;;4989508;28;20468;-82
2023/02/22 03:39:06;;;;;;;20.80;7.15;;;5.90;99.90;;;;;;4989647;28;20868;-81
2023/02/22 03:41:39;;;;;;;23.83;7.23;;;5.70;99.90;;;;;;4988771;28;20412;-81
2023/02/22 03:44:09;;;;;;;23.05;7.28;;;5.50;99.90;;;;;;4988125;28;20412;-81
2023/02/22 03:46:38;;;;;;;14.43;5.25;;;5.40;99.90;;;;;;4988641;28;20412;-80
2023/02/22 03:49:16;;;;;;;18.63;5.80;;;5.70;99.90;;;;;;4990419;28;20384;-80
2023/02/22 03:51:42;;;;;;;17.67;5.93;;;5.70;99.90;;;;;;4988404;28;20400;-81
2023/02/22 03:54:15;;;;;;;14.68;4.65;;;5.70;99.90;;;;;;4988063;28;20422;-81
2023/02/22 03:56:54;;;;;;;22.38;6.03;;;5.70;99.90;;;;;;4978698;28;20559;-80
2023/02/22 03:59:24;;;;;;;11.60;4.47;;;5.40;99.90;;;;;;4988360;28;20427;-79
2023/02/22 04:01:50;;;;;;;14.50;5.07;;;5.40;99.90;;;;;;4989181;28;20499;-81
2023/02/22 04:04:17;;;;;;;16.27;4.93;;;5.60;99.90;;;;;;4988334;28;20397;-79
2023/02/22 04:06:43;;;;;;;12.93;4.20;;;5.60;99.90;;;;;;4991457;28;20413;-81
2023/02/22 04:09:09;;;;;;;16.00;4.88;;;5.70;99.90;;;;;;4985663;28;20397;-81
2023/02/22 04:11:36;;;;;;;20.00;5.72;;;5.80;99.90;;;;;;4988495;28;20404;-82
2023/02/22 04:14:02;;;;;;;19.05;5.88;;;5.80;99.90;;;;;;4985331;28;20408;-81
2023/02/22 04:16:28;;;;;;;21.08;6.03;;;5.60;99.90;;;;;;4973344;28;20525;-81
2023/02/22 04:18:53;;;;;;;13.93;4.70;;;5.40;99.90;;;;;;4988571;28;20405;-81
2023/02/22 04:21:19;;;;;;;12.90;4.63;;;5.40;99.90;;;;;;4988450;28;20397;-83
2023/02/22 04:23:45;;;;;;;14.18;4.90;;;5.60;99.90;;;;;;4969607;28;20460;-81
2023/02/22 04:26:10;;;;;;;14.52;4.85;;;5.70;99.90;;;;;;4988091;28;20409;-81
2023/02/22 04:28:36;;;;;;;12.43;4.53;;;5.70;99.90;;;;;;4971537;28;20400;-81
2023/02/22 04:31:02;;;;;;;15.88;5.05;;;5.70;99.90;;;;;;4988121;28;20478;-81
2023/02/22 04:33:27;;;;;;;17.80;4.97;;;5.80;99.90;;;;;;4989392;28;20979;-82
2023/02/22 04:35:53;;;;;;;17.80;5.43;;;5.80;99.90;;;;;;4985143;28;20416;-81
2023/02/22 04:38:19;;;;;;;16.17;4.78;;;5.60;99.90;;;;;;4988389;28;20397;-81
2023/02/22 04:40:45;;;;;;;12.32;4.70;;;5.70;99.90;;;;;;4986256;28;21234;-82
2023/02/22 04:43:10;;;;;;;15.90;5.10;;;5.80;99.90;;;;;;4989211;28;20381;-80
2023/02/22 04:45:36;;;;;;;25.70;6.40;;;5.80;99.90;;;;;;4989384;28;20377;-80
2023/02/22 04:48:02;;;;;;;15.07;4.72;;;5.60;99.90;;;;;;4989068;28;20883;-80
2023/02/22 04:50:27;;;;;;;17.13;5.22;;;5.70;99.90;;;;;;4990076;28;20483;-80
2023/02/22 04:52:53;;;;;;;16.38;5.30;;;5.70;99.90;;;;;;4988515;28;20377;-82
2023/02/22 04:55:19;;;;;;;18.00;5.77;;;5.90;99.90;;;;;;4989670;28;20512;-80
2023/02/22 04:57:45;;;;;;;15.90;5.40;;;5.90;99.90;;;;;;4971755;28;20412;-81
2023/02/22 05:00:16;;;;;;;16.38;5.72;;;5.90;99.90;;;;;;4989383;28;20381;-81
2023/02/22 05:02:42;;;;;;;21.30;6.20;;;5.70;99.90;;;;;;4989745;28;20452;-82
2023/02/22 05:05:07;;;;;;;14.17;5.30;;;5.40;99.90;;;;;;4989717;28;20760;-81
2023/02/22 05:07:33;;;;;;;17.90;5.15;;;5.50;99.90;;;;;;4977981;28;20811;-82
2023/02/22 05:10:01;;;;;;;21.35;6.70;;;5.70;99.90;;;;;;4988047;28;20515;-82
2023/02/22 05:12:27;;;;;;;15.48;7.68;;;5.70;99.90;;;;;;4986316;28;20886;-82
2023/02/22 05:14:53;;;;;;;15.23;7.55;;;5.70;99.90;;;;;;4989743;28;20404;-81
2023/02/22 05:17:18;;;;;;;15.68;7.43;;;5.80;99.90;;;;;;4987261;28;20436;-81
2023/02/22 05:19:45;;;;;;;22.73;9.70;;;5.90;99.90;;;;;;4986421;28;20460;-78
2023/02/22 05:22:10;;;;;;;29.20;16.73;;;6.00;99.90;;;;;;4987366;28;20422;-81
2023/02/22 05:24:37;;;;;;;29.35;18.27;;;6.00;99.90;;;;;;4989328;28;20487;-81
2023/02/22 05:27:02;;;;;;;36.33;17.67;;;6.10;99.90;;;;;;4987547;28;20413;-81
2023/02/22 05:29:28;;;;;;;30.45;13.85;;;6.00;99.90;;;;;;4988258;28;20397;-81
2023/02/22 05:31:54;;;;;;;21.08;10.30;;;5.80;99.90;;;;;;4984281;28;20491;-81
2023/02/22 05:34:19;;;;;;;18.90;9.07;;;5.90;99.90;;;;;;4987393;28;20918;-82
2023/02/22 05:36:45;;;;;;;16.95;6.78;;;6.10;99.90;;;;;;4987708;28;20926;-82
2023/02/22 05:39:11;;;;;;;20.35;6.85;;;6.20;99.90;;;;;;4987787;28;20451;-82
2023/02/22 05:41:37;;;;;;;20.90;7.22;;;6.10;99.90;;;;;;4984002;28;20412;-83
2023/02/22 05:44:03;;;;;;;12.53;5.10;;;6.10;99.90;;;;;;4988034;28;20408;-81
2023/02/22 05:46:29;;;;;;;11.68;4.40;;;6.30;99.90;;;;;;4988538;28;20496;-83
2023/02/22 05:48:54;;;;;;;16.23;5.70;;;6.40;99.90;;;;;;4988037;28;20409;-81
2023/02/22 05:51:20;;;;;;;19.50;5.50;;;6.50;99.90;;;;;;4988346;28;20513;-81
2023/02/22 05:53:46;;;;;;;10.85;4.40;;;6.10;99.90;;;;;;4987731;28;20408;-82
2023/02/22 05:56:11;;;;;;;19.27;5.70;;;5.90;99.90;;;;;;4991998;28;20418;-81
2023/02/22 05:58:37;;;;;;;20.00;5.90;;;5.90;99.90;;;;;;4989603;28;20954;-80
2023/02/22 06:01:03;;;;;;;21.67;5.90;;;5.80;99.90;;;;;;4990507;28;20405;-82
2023/02/22 06:03:28;;;;;;;17.35;5.13;;;5.80;99.90;;;;;;4987574;28;20787;-81
2023/02/22 06:05:54;;;;;;;16.35;5.53;;;5.90;99.90;;;;;;4992729;28;20474;-80
2023/02/22 06:08:20;;;;;;;15.63;5.57;;;6.00;99.90;;;;;;4991524;28;20381;-82
2023/02/22 06:10:45;;;;;;;15.30;5.73;;;6.10;99.90;;;;;;4991660;28;20388;-82
2023/02/22 06:13:11;;;;;;;11.70;5.20;;;6.20;99.90;;;;;;4992237;28;20397;-81
2023/02/22 06:15:37;;;;;;;16.25;6.47;;;6.30;99.90;;;;;;4975505;28;20459;-84
2023/02/22 06:18:02;;;;;;;17.20;6.30;;;6.40;99.90;;;;;;4992225;28;20389;-82
2023/02/22 06:20:29;;;;;;;16.47;6.40;;;6.40;99.90;;;;;;4990987;28;20428;-81
2023/02/22 06:22:57;;;;;;;24.27;6.70;;;6.40;99.90;;;;;;4993069;28;20411;-81
2023/02/22 06:25:26;;;;;;;19.65;6.47;;;6.10;99.90;;;;;;4993216;28;20409;-81
2023/02/22 06:27:52;;;;;;;18.07;5.73;;;5.90;99.90;;;;;;4991279;28;20389;-83
2023/02/22 06:30:21;;;;;;;16.42;5.57;;;5.90;99.90;;;;;;4992799;28;20934;-81
2023/02/22 06:32:47;;;;;;;18.00;5.45;;;6.00;99.90;;;;;;4992702;28;20416;-81
2023/02/22 06:35:14;;;;;;;22.75;7.10;;;6.30;99.90;;;;;;4992411;28;20381;-81
2023/02/22 06:37:40;;;;;;;15.00;5.55;;;6.20;99.90;;;;;;4995327;28;20444;-81
2023/02/22 06:40:06;;;;;;;14.57;5.47;;;6.20;99.90;;;;;;4993013;28;20385;-81
2023/02/22 06:42:32;;;;;;;16.90;5.97;;;6.30;99.90;;;;;;4992532;28;20385;-83
2023/02/22 06:44:57;;;;;;;20.60;6.35;;;6.50;99.90;;;;;;4992358;28;20731;-83
2023/02/22 06:47:23;;;;;;;20.25;6.57;;;6.30;99.90;;;;;;4992458;28;20455;-82
2023/02/22 06:49:56;;;;;;;19.08;6.88;;;6.00;99.90;;;;;;4992539;28;20385;-83
2023/02/22 06:52:23;;;;;;;22.00;8.25;;;5.80;99.90;;;;;;4992544;28;20381;-82
2023/02/22 06:54:49;;;;;;;17.43;6.67;;;5.90;99.90;;;;;;4992279;28;20373;-82
2023/02/22 06:57:15;;;;;;;19.83;7.05;;;6.10;99.90;;;;;;4992121;28;20404;-82
2023/02/22 06:59:41;;;;;;;22.92;7.85;;;6.30;99.90;;;;;;4992419;28;20381;-81
2023/02/22 07:02:08;;;;;;;20.20;7.25;;;6.30;99.90;;;;;;4992591;28;20388;-82
2023/02/22 07:04:33;;;;;;;19.20;7.45;;;6.40;99.90;;;;;;4991679;28;20380;-82
2023/02/22 07:06:59;;;;;;;23.38;7.32;;;6.60;99.90;;;;;;4991082;28;20373;-83
2023/02/22 07:09:25;;;;;;;22.53;7.90;;;6.70;99.90;;;;;;4990231;28;20408;-83
2023/02/22 07:11:50;;;;;;;21.70;7.60;;;6.70;99.90;;;;;;4991642;28;20392;-82
2023/02/22 07:14:16;;;;;;;22.70;7.05;;;6.60;99.90;;;;;;4991979;28;20468;-81
2023/02/22 07:16:42;;;;;;;29.10;7.93;;;6.80;99.90;;;;;;4991587;28;20786;-81
2023/02/22 07:19:08;;;;;;;27.33;8.13;;;6.80;99.90;;;;;;4990469;28;20389;-82
2023/02/22 07:21:34;;;;;;;20.00;7.23;;;6.80;99.90;;;;;;4995814;28;20907;-80
2023/02/22 07:23:59;;;;;;;22.60;7.33;;;6.80;99.90;;;;;;5011826;28;20705;-82
2023/02/22 07:26:26;;;;;;;21.92;7.43;;;6.90;99.90;;;;;;5004451;28;20376;-81
2023/02/22 07:28:52;;;;;;;19.83;7.00;;;6.90;99.90;;;;;;4999404;28;20379;-83
2023/02/22 07:31:17;;;;;;;20.08;6.78;;;7.20;99.90;;;;;;5005181;28;20374;-83
2023/02/22 07:33:46;;;;;;;23.20;7.87;;;7.20;99.90;;;;;;5009932;28;20857;-79
2023/02/22 07:36:13;;;;;;;22.67;7.50;;;7.20;99.90;;;;;;5009900;28;20414;-81
2023/02/22 07:38:40;;;;;;;17.98;6.25;;;7.20;99.90;;;;;;5005772;28;20413;-80
2023/02/22 07:41:09;;;;;;;20.63;7.80;;;7.40;99.90;;;;;;4981886;28;20412;-83
2023/02/22 07:43:35;;;;;;;20.88;7.60;;;7.50;99.90;;;;;;4990269;28;20744;-81
2023/02/22 07:46:02;;;;;;;21.03;7.13;;;7.50;99.90;;;;;;4986862;28;20435;-80
2023/02/22 07:48:30;;;;;;;20.92;7.72;;;7.60;99.90;;;;;;4989399;28;20392;-81
2023/02/22 07:50:56;;;;;;;19.30;8.75;;;7.70;99.90;;;;;;4964827;28;20410;-82
2023/02/22 07:53:29;;;;;;;28.63;8.40;;;7.90;99.90;;;;;;4986533;28;20381;-83
2023/02/22 07:55:59;;;;;;;24.15;9.15;;;7.80;99.90;;;;;;4986455;28;20503;-82
2023/02/22 07:58:27;;;;;;;21.13;8.07;;;7.90;99.90;;;;;;4992323;28;20404;-81
2023/02/22 08:00:53;;;;;;;24.50;8.23;;;7.90;99.90;;;;;;4987603;28;20838;-81
2023/02/22 08:03:22;;;;;;;23.50;9.05;;;8.00;99.90;;;;;;4987872;28;20392;-84
2023/02/22 08:05:56;;;;;;;21.30;8.30;;;8.00;99.90;;;;;;4988507;28;20381;-80
2023/02/22 08:08:23;;;;;;;23.00;7.90;;;7.90;99.90;;;;;;4987863;28;20439;-82
2023/02/22 08:10:50;;;;;;;25.92;8.10;;;7.90;99.90;;;;;;4986568;28;20385;-82
2023/02/22 08:13:17;;;;;;;20.37;6.93;;;7.90;99.90;;;;;;4982879;28;20524;-80
2023/02/22 08:15:43;;;;;;;25.23;6.88;;;8.10;99.90;;;;;;4984705;28;20462;-82
2023/02/22 08:18:12;;;;;;;18.20;6.83;;;8.10;99.90;;;;;;4984360;28;20392;-76
2023/02/22 08:20:40;;;;;;;23.33;7.22;;;8.10;99.90;;;;;;4990021;28;20391;-77
2023/02/22 08:23:07;;;;;;;22.13;7.15;;;8.20;99.90;;;;;;4982097;28;20404;-75
2023/02/22 08:25:33;;;;;;;25.75;7.30;;;8.30;99.90;;;;;;4984515;28;20389;-76
2023/02/22 08:28:10;;;;;;;17.17;7.22;;;8.10;99.90;;;;;;4989798;28;20385;-81
2023/02/22 08:30:37;;;;;;;20.35;7.72;;;8.00;99.90;;;;;;4997565;28;20541;-82
2023/02/22 08:33:06;;;;;;;21.75;7.20;;;8.10;99.90;;;;;;4988095;28;20875;-82
2023/02/22 08:35:35;;;;;;;27.63;7.03;;;8.20;99.90;;;;;;4970346;28;20469;-83
2023/02/22 08:38:04;;;;;;;24.00;8.23;;;8.30;99.90;;;;;;4965466;28;20390;-83
2023/02/22 08:40:34;;;;;;;24.58;7.88;;;8.40;99.90;;;;;;4980476;28;20404;-82
2023/02/22 08:43:00;;;;;;;26.88;7.95;;;8.50;99.90;;;;;;4990073;28;20393;-81
2023/02/22 08:45:27;;;;;;;18.77;6.70;;;8.40;99.90;;;;;;4985199;28;20503;-81
2023/02/22 08:47:53;;;;;;;25.13;6.80;;;8.60;99.90;;;;;;4987035;28;20397;-80
2023/02/22 08:50:20;;;;;;;21.33;6.82;;;8.60;99.90;;;;;;4986584;28;20487;-82
2023/02/22 08:52:46;;;;;;;21.88;7.43;;;8.80;99.90;;;;;;4976672;28;20497;-82
2023/02/22 08:55:12;;;;;;;18.60;6.30;;;8.90;99.90;;;;;;5024346;28;20802;-83
2023/02/22 08:57:37;;;;;;;18.95;6.78;;;9.10;99.90;;;;;;5005794;28;20407;-82
2023/02/22 09:00:04;;;;;;;21.55;6.50;;;9.20;99.90;;;;;;4993033;28;20400;-77
2023/02/22 09:02:30;;;;;;;20.65;6.60;;;9.10;99.90;;;;;;4988340;28;20417;-77
2023/02/22 09:04:56;;;;;;;21.92;6.85;;;9.30;99.90;;;;;;4981495;28;20434;-77
2023/02/22 09:07:21;;;;;;;22.85;6.70;;;9.50;99.90;;;;;;4995249;28;20383;-76
2023/02/22 09:09:47;;;;;;;20.20;6.83;;;9.50;99.90;;;;;;4995431;28;20468;-82
2023/02/22 09:12:13;;;;;;;24.00;6.70;;;9.30;99.90;;;;;;4989520;28;20436;-81
2023/02/22 09:14:39;;;;;;;24.90;7.00;;;9.50;99.90;;;;;;4969288;28;20423;-80
2023/02/22 09:17:07;;;;;;;20.65;6.30;;;9.60;99.90;;;;;;4968401;28;20903;-81
2023/02/22 09:19:34;;;;;;;29.75;7.88;;;9.60;99.90;;;;;;4967244;28;20436;-80
2023/02/22 09:22:00;;;;;;;22.08;6.38;;;9.80;99.90;;;;;;4968508;28;20404;-80
2023/02/22 09:24:27;;;;;;;25.23;6.40;;;9.90;99.90;;;;;;4985557;28;20388;-80
2023/02/22 09:26:53;;;;;;;21.52;6.30;;;9.90;99.90;;;;;;4984428;28;20815;-80
2023/02/22 09:29:24;;;;;;;24.23;6.53;;;10.00;99.90;;;;;;4986676;28;20405;-81
2023/02/22 09:31:52;;;;;;;23.95;6.60;;;10.00;99.90;;;;;;4986142;28;20443;-80
2023/02/22 09:34:21;;;;;;;21.17;6.83;;;10.10;99.90;;;;;;4985286;28;20422;-80
2023/02/22 09:36:52;;;;;;;22.60;6.78;;;10.00;99.90;;;;;;4972049;28;20428;-81
2023/02/22 09:39:17;;;;;;;22.10;5.82;;;9.80;99.90;;;;;;4992576;28;20919;-81
2023/02/22 09:42:08;;;;;;;23.60;6.67;;;10.00;99.90;;;;;;4988760;28;20428;-81
2023/02/22 09:44:48;;;;;;;24.92;6.65;;;9.90;99.90;;;;;;4992650;28;20393;-82
2023/02/22 09:47:31;;;;;;;22.88;6.47;;;10.00;99.90;;;;;;4989108;28;20504;-81
2023/02/22 09:50:17;;;;;;;21.95;6.28;;;10.10;99.90;;;;;;4990352;28;20931;-80
2023/02/22 09:52:58;;;;;;;19.00;5.73;;;10.10;99.90;;;;;;4989974;28;20416;-82
2023/02/22 09:55:37;;;;;;;22.75;7.03;;;10.30;99.90;;;;;;4974023;28;20384;-80
2023/02/22 09:58:13;;;;;;;21.70;6.47;;;10.30;99.90;;;;;;4989658;28;20389;-81
2023/02/22 10:00:42;;;;;;;23.50;6.87;;;10.10;99.90;;;;;;4986783;28;20408;-79
2023/02/22 10:03:40;;;;;;;18.70;6.68;;;10.00;99.90;;;;;;4975185;28;20392;-80
2023/02/22 10:06:14;;;;;;;23.67;7.53;;;10.00;99.90;;;;;;4989869;28;20397;-80
2023/02/22 10:08:43;;;;;;;24.85;6.25;;;10.20;99.90;;;;;;4991361;28;20377;-81
2023/02/22 10:11:47;;;;;;;21.75;6.30;;;10.30;99.90;;;;;;4989182;28;20418;-81
2023/02/22 10:14:32;;;;;;;22.88;6.18;;;10.10;99.90;;;;;;4990182;28;20420;-81
2023/02/22 10:17:14;;;;;;;19.48;6.07;;;10.00;99.90;;;;;;4989133;28;20487;-81
2023/02/22 10:20:17;;;;;;;24.37;6.50;;;10.30;99.90;;;;;;4971958;28;20416;-81
2023/02/22 10:23:00;;;;;;;16.25;5.30;;;10.30;99.90;;;;;;4973835;28;20456;-80
2023/02/22 10:25:29;;;;;;;22.38;6.20;;;10.70;99.90;;;;;;4990570;28;20384;-80
2023/02/22 10:28:02;;;;;;;22.75;5.63;;;10.80;99.90;;;;;;4988225;28;20423;-81
2023/02/22 10:30:37;;;;;;;19.88;5.72;;;10.40;99.90;;;;;;4968352;28;20472;-80
2023/02/22 10:33:19;;;;;;;22.87;5.77;;;10.40;99.90;;;;;;5007089;28;20386;-80
2023/02/22 10:35:45;;;;;;;13.40;4.97;;;10.30;99.90;;;;;;4971331;28;20406;-81
2023/02/22 10:38:38;;;;;;;20.17;5.57;;;10.40;99.90;;;;;;4975960;28;20446;-81
2023/02/22 10:41:10;;;;;;;19.50;5.38;;;10.50;99.90;;;;;;4970193;28;20386;-81
2023/02/22 10:43:37;;;;;;;20.33;5.83;;;10.70;99.90;;;;;;4980804;28;20388;-80
2023/02/22 10:46:06;;;;;;;21.15;5.88;;;10.60;99.90;;;;;;4986640;28;20396;-79
2023/02/22 10:48:36;;;;;;;19.80;5.68;;;10.80;99.90;;;;;;4986303;28;20408;-79
2023/02/22 10:51:07;;;;;;;22.40;5.93;;;10.60;99.90;;;;;;4987005;28;20407;-79
2023/02/22 10:53:36;;;;;;;18.97;5.70;;;10.50;99.90;;;;;;4989191;28;20427;-80
2023/02/22 10:56:14;;;;;;;17.52;5.25;;;10.40;99.90;;;;;;4990431;28;20728;-79
2023/02/22 10:58:40;;;;;;;18.60;5.10;;;10.50;99.90;;;;;;4989007;28;20396;-79
2023/02/22 11:01:30;;;;;;;21.23;5.43;;;10.70;99.90;;;;;;4991048;28;20735;-79
2023/02/22 11:04:15;;;;;;;15.35;5.28;;;10.60;99.90;;;;;;4991085;28;20385;-80
2023/02/22 11:06:44;;;;;;;18.52;5.30;;;10.60;99.90;;;;;;4991030;28;20910;-81
2023/02/22 11:09:21;;;;;;;20.63;5.33;;;10.30;99.90;;;;;;4990437;28;20385;-79
2023/02/22 11:11:48;;;;;;;21.42;5.78;;;10.20;99.90;;;;;;4990657;28;21220;-79
2023/02/22 11:14:28;;;;;;;19.33;5.50;;;10.20;99.90;;;;;;4990348;28;20400;-81
2023/02/22 11:16:59;;;;;;;19.20;5.90;;;10.20;99.90;;;;;;4990642;28;20524;-80
2023/02/22 11:19:28;;;;;;;17.97;5.30;;;10.40;99.90;;;;;;4990903;28;20475;-80
2023/02/22 11:22:09;;;;;;;24.88;5.97;;;10.30;99.90;;;;;;4991167;28;20391;-81
2023/02/22 11:24:52;;;;;;;19.10;5.68;;;10.00;99.90;;;;;;4990284;28;20377;-81
2023/02/22 11:27:38;;;;;;;17.58;5.28;;;10.20;99.90;;;;;;4990328;28;20479;-79
2023/02/22 11:30:30;;;;;;;20.65;5.85;;;10.50;99.90;;;;;;4972746;28;20400;-80
2023/02/22 11:33:09;;;;;;;19.13;5.03;;;10.50;99.90;;;;;;4990161;28;20380;-80
2023/02/22 11:35:39;;;;;;;20.67;5.57;;;10.60;99.90;;;;;;4983034;28;20519;-81
2023/02/22 11:38:15;;;;;;;18.20;5.35;;;10.20;99.90;;;;;;4990254;28;20369;-81
2023/02/22 11:40:41;;;;;;;18.70;5.05;;;10.20;99.90;;;;;;4990381;28;20389;-81
2023/02/22 11:43:17;;;;;;;17.08;5.32;;;10.30;99.90;;;;;;4988589;28;20389;-80
2023/02/22 11:46:10;;;;;;;16.60;4.95;;;10.40;99.90;;;;;;4986663;28;20381;-81
2023/02/22 11:48:40;;;;;;;22.67;5.90;;;10.60;99.90;;;;;;4990024;28;20521;-82
2023/02/22 11:51:13;;;;;;;20.83;6.00;;;10.60;99.90;;;;;;4989901;28;20376;-80
2023/02/22 11:54:18;;;;;;;16.88;5.93;;;10.70;99.90;;;;;;4991221;28;20502;-81
2023/02/22 11:56:47;;;;;;;18.63;6.68;;;10.90;99.90;;;;;;4971061;28;20504;-81
2023/02/22 11:59:35;;;;;;;21.10;5.55;;;10.60;99.90;;;;;;4990600;28;20377;-81
2023/02/22 12:02:01;;;;;;;18.65;5.88;;;10.60;99.90;;;;;;4990172;28;20947;-82
2023/02/22 12:04:45;;;;;;;18.33;5.10;;;10.70;99.90;;;;;;4990007;28;20443;-80
2023/02/22 12:07:23;;;;;;;16.27;5.13;;;10.90;99.90;;;;;;4988909;28;20455;-81
2023/02/22 12:10:30;;;;;;;19.70;5.13;;;10.90;99.90;;;;;;4990196;28;20388;-80
2023/02/22 12:13:29;;;;;;;15.30;5.53;;;10.90;99.90;;;;;;4989475;28;20389;-80
2023/02/22 12:15:58;;;;;;;21.38;5.80;;;10.50;99.90;;;;;;4989529;28;20729;-80
2023/02/22 12:18:34;;;;;;;16.95;5.25;;;10.40;99.90;;;;;;4989794;28;20385;-81
2023/02/22 12:21:05;;;;;;;17.90;5.30;;;10.40;99.90;;;;;;4989677;28;20433;-82
2023/02/22 12:23:49;;;;;;;18.05;5.20;;;10.40;99.90;;;;;;4989457;28;20867;-82
2023/02/22 12:26:31;;;;;;;17.40;4.47;;;10.60;99.90;;;;;;4989746;28;20412;-82
2023/02/22 12:29:19;;;;;;;14.65;5.05;;;10.70;99.90;;;;;;4988100;28;20400;-81
2023/02/22 12:31:57;;;;;;;18.38;5.15;;;10.70;99.90;;;;;;4989375;28;20384;-82
2023/02/22 12:34:34;;;;;;;14.68;4.95;;;10.70;99.90;;;;;;4988893;28;20385;-80
2023/02/22 12:37:14;;;;;;;15.10;4.97;;;10.80;99.90;;;;;;4989098;28;20530;-81
2023/02/22 12:40:25;;;;;;;15.70;5.38;;;10.70;99.90;;;;;;4987634;28;20524;-81
2023/02/22 12:43:09;;;;;;;19.42;5.32;;;10.90;99.90;;;;;;4984008;28;20420;-82
2023/02/22 12:45:43;;;;;;;16.77;5.15;;;11.10;99.90;;;;;;4988890;28;20444;-81
2023/02/22 12:48:17;;;;;;;18.35;5.18;;;10.80;99.90;;;;;;4989615;28;20381;-82
2023/02/22 12:50:46;;;;;;;17.10;4.73;;;10.80;99.90;;;;;;4989157;28;20393;-82
2023/02/22 12:53:12;;;;;;;17.17;5.37;;;10.70;99.90;;;;;;4989787;28;20377;-83
2023/02/22 12:55:44;;;;;;;16.67;4.50;;;10.70;99.90;;;;;;4986533;28;20419;-80
2023/02/22 12:58:31;;;;;;;15.90;4.57;;;10.80;99.90;;;;;;4989545;28;20739;-79
2023/02/22 13:01:05;;;;;;;12.33;4.53;;;10.80;99.90;;;;;;4989272;28;20393;-81
2023/02/22 13:03:38;;;;;;;14.50;4.20;;;10.80;99.90;;;;;;4989418;28;20393;-80
2023/02/22 13:06:23;;;;;;;16.30;5.00;;;10.90;99.90;;;;;;4988807;28;20464;-80